sensor_id;sensor_type;location;lat;lon;timestamp;P1;durP1;ratioP1;P2;durP2;ratioP2
53281;SDS011;39167;52.794;6.892;2022-07-11T00:00:09;7.68;;;2.00;;
53281;SDS011;39167;52.794;6.892;2022-07-11T00:02:37;6.18;;;1.88;;
53281;SDS011;39167;52.794;6.892;2022-07-11T00:05:07;4.50;;;2.05;;
53281;SDS011;39167;52.794;6.892;2022-07-11T00:07:34;4.88;;;1.90;;
53281;SDS011;39167;52.794;6.892;2022-07-11T00:10:01;4.93;;;2.35;;
53281;SDS011;39167;52.794;6.892;2022-07-11T00:12:29;10.30;;;2.83;;
53281;SDS011;39167;52.794;6.892;2022-07-11T00:14:55;6.00;;;2.28;;
53281;SDS011;39167;52.794;6.892;2022-07-11T00:17:22;5.28;;;1.92;;
53281;SDS011;39167;52.794;6.892;2022-07-11T00:19:50;6.25;;;2.20;;
53281;SDS011;39167;52.794;6.892;2022-07-11T00:22:16;4.88;;;1.70;;
53281;SDS011;39167;52.794;6.892;2022-07-11T00:24:42;5.65;;;2.17;;
53281;SDS011;39167;52.794;6.892;2022-07-11T00:27:07;3.53;;;2.30;;
53281;SDS011;39167;52.794;6.892;2022-07-11T00:29:33;5.55;;;1.77;;
53281;SDS011;39167;52.794;6.892;2022-07-11T00:31:59;4.97;;;2.15;;
53281;SDS011;39167;52.794;6.892;2022-07-11T00:34:25;5.07;;;2.08;;
53281;SDS011;39167;52.794;6.892;2022-07-11T00:36:51;7.93;;;2.20;;
53281;SDS011;39167;52.794;6.892;2022-07-11T00:39:16;5.10;;;1.85;;
53281;SDS011;39167;52.794;6.892;2022-07-11T00:41:42;5.05;;;1.90;;
53281;SDS011;39167;52.794;6.892;2022-07-11T00:44:08;4.72;;;2.20;;
53281;SDS011;39167;52.794;6.892;2022-07-11T00:46:34;6.07;;;2.05;;
53281;SDS011;39167;52.794;6.892;2022-07-11T00:49:00;6.00;;;1.85;;
53281;SDS011;39167;52.794;6.892;2022-07-11T00:51:26;3.38;;;1.80;;
53281;SDS011;39167;52.794;6.892;2022-07-11T00:53:56;10.07;;;2.30;;
53281;SDS011;39167;52.794;6.892;2022-07-11T00:56:24;8.77;;;2.20;;
53281;SDS011;39167;52.794;6.892;2022-07-11T00:58:51;7.60;;;2.28;;
53281;SDS011;39167;52.794;6.892;2022-07-11T01:01:19;4.43;;;1.98;;
53281;SDS011;39167;52.794;6.892;2022-07-11T01:03:45;4.60;;;1.67;;
53281;SDS011;39167;52.794;6.892;2022-07-11T01:06:11;4.13;;;1.90;;
53281;SDS011;39167;52.794;6.892;2022-07-11T01:08:38;7.55;;;1.75;;
53281;SDS011;39167;52.794;6.892;2022-07-11T01:11:05;3.53;;;1.73;;
53281;SDS011;39167;52.794;6.892;2022-07-11T01:13:44;6.18;;;1.98;;
53281;SDS011;39167;52.794;6.892;2022-07-11T01:16:12;4.35;;;1.90;;
53281;SDS011;39167;52.794;6.892;2022-07-11T01:18:39;4.68;;;1.45;;
53281;SDS011;39167;52.794;6.892;2022-07-11T01:21:09;3.42;;;1.67;;
53281;SDS011;39167;52.794;6.892;2022-07-11T01:23:42;7.82;;;2.30;;
53281;SDS011;39167;52.794;6.892;2022-07-11T01:26:08;5.63;;;1.70;;
53281;SDS011;39167;52.794;6.892;2022-07-11T01:28:35;7.15;;;1.92;;
53281;SDS011;39167;52.794;6.892;2022-07-11T01:31:01;6.65;;;1.83;;
53281;SDS011;39167;52.794;6.892;2022-07-11T01:33:26;4.72;;;1.90;;
53281;SDS011;39167;52.794;6.892;2022-07-11T01:35:52;5.60;;;2.05;;
53281;SDS011;39167;52.794;6.892;2022-07-11T01:38:18;6.45;;;1.80;;
53281;SDS011;39167;52.794;6.892;2022-07-11T01:40:43;5.68;;;1.95;;
53281;SDS011;39167;52.794;6.892;2022-07-11T01:43:09;5.25;;;2.00;;
53281;SDS011;39167;52.794;6.892;2022-07-11T01:45:35;4.78;;;2.42;;
53281;SDS011;39167;52.794;6.892;2022-07-11T01:48:00;6.80;;;2.55;;
53281;SDS011;39167;52.794;6.892;2022-07-11T01:50:26;4.75;;;1.98;;
53281;SDS011;39167;52.794;6.892;2022-07-11T01:52:53;5.85;;;1.65;;
53281;SDS011;39167;52.794;6.892;2022-07-11T01:55:18;6.40;;;2.17;;
53281;SDS011;39167;52.794;6.892;2022-07-11T01:57:44;4.63;;;1.90;;
53281;SDS011;39167;52.794;6.892;2022-07-11T02:00:10;5.00;;;1.63;;
53281;SDS011;39167;52.794;6.892;2022-07-11T02:02:36;10.27;;;2.97;;
53281;SDS011;39167;52.794;6.892;2022-07-11T02:05:02;5.45;;;2.22;;
53281;SDS011;39167;52.794;6.892;2022-07-11T02:07:28;7.60;;;2.17;;
53281;SDS011;39167;52.794;6.892;2022-07-11T02:10:12;6.55;;;2.45;;
53281;SDS011;39167;52.794;6.892;2022-07-11T02:12:38;5.40;;;2.45;;
53281;SDS011;39167;52.794;6.892;2022-07-11T02:15:04;6.50;;;2.58;;
53281;SDS011;39167;52.794;6.892;2022-07-11T02:17:31;8.48;;;2.60;;
53281;SDS011;39167;52.794;6.892;2022-07-11T02:19:57;9.43;;;2.72;;
53281;SDS011;39167;52.794;6.892;2022-07-11T02:22:22;8.65;;;2.80;;
53281;SDS011;39167;52.794;6.892;2022-07-11T02:24:48;8.90;;;2.80;;
53281;SDS011;39167;52.794;6.892;2022-07-11T02:27:14;7.10;;;2.55;;
53281;SDS011;39167;52.794;6.892;2022-07-11T02:29:40;6.43;;;2.75;;
53281;SDS011;39167;52.794;6.892;2022-07-11T02:32:06;5.28;;;2.97;;
53281;SDS011;39167;52.794;6.892;2022-07-11T02:34:32;8.68;;;2.65;;
53281;SDS011;39167;52.794;6.892;2022-07-11T02:36:57;6.82;;;3.10;;
53281;SDS011;39167;52.794;6.892;2022-07-11T02:39:23;10.38;;;2.40;;
53281;SDS011;39167;52.794;6.892;2022-07-11T02:41:49;5.38;;;2.15;;
53281;SDS011;39167;52.794;6.892;2022-07-11T02:44:15;5.95;;;2.45;;
53281;SDS011;39167;52.794;6.892;2022-07-11T02:46:40;8.75;;;3.20;;
53281;SDS011;39167;52.794;6.892;2022-07-11T02:49:06;8.35;;;2.28;;
53281;SDS011;39167;52.794;6.892;2022-07-11T02:51:32;4.90;;;2.30;;
53281;SDS011;39167;52.794;6.892;2022-07-11T02:53:58;4.18;;;2.15;;
53281;SDS011;39167;52.794;6.892;2022-07-11T02:56:23;6.80;;;2.72;;
53281;SDS011;39167;52.794;6.892;2022-07-11T02:58:49;3.45;;;2.00;;
53281;SDS011;39167;52.794;6.892;2022-07-11T03:01:15;7.80;;;2.85;;
53281;SDS011;39167;52.794;6.892;2022-07-11T03:03:40;5.53;;;2.85;;
53281;SDS011;39167;52.794;6.892;2022-07-11T03:06:06;9.27;;;2.85;;
53281;SDS011;39167;52.794;6.892;2022-07-11T03:08:32;8.27;;;2.85;;
53281;SDS011;39167;52.794;6.892;2022-07-11T03:10:57;6.95;;;2.40;;
53281;SDS011;39167;52.794;6.892;2022-07-11T03:13:23;6.75;;;2.55;;
53281;SDS011;39167;52.794;6.892;2022-07-11T03:15:49;5.70;;;2.63;;
53281;SDS011;39167;52.794;6.892;2022-07-11T03:18:16;5.07;;;2.10;;
53281;SDS011;39167;52.794;6.892;2022-07-11T03:20:42;9.48;;;2.90;;
53281;SDS011;39167;52.794;6.892;2022-07-11T03:23:07;3.00;;;1.95;;
53281;SDS011;39167;52.794;6.892;2022-07-11T03:25:33;5.38;;;2.50;;
53281;SDS011;39167;52.794;6.892;2022-07-11T03:27:58;3.60;;;1.83;;
53281;SDS011;39167;52.794;6.892;2022-07-11T03:30:24;5.38;;;1.90;;
53281;SDS011;39167;52.794;6.892;2022-07-11T03:32:50;5.43;;;2.20;;
53281;SDS011;39167;52.794;6.892;2022-07-11T03:35:16;4.30;;;2.05;;
53281;SDS011;39167;52.794;6.892;2022-07-11T03:38:00;5.03;;;2.22;;
53281;SDS011;39167;52.794;6.892;2022-07-11T03:40:25;4.13;;;2.28;;
53281;SDS011;39167;52.794;6.892;2022-07-11T03:42:51;4.68;;;2.22;;
53281;SDS011;39167;52.794;6.892;2022-07-11T03:45:17;2.72;;;1.80;;
53281;SDS011;39167;52.794;6.892;2022-07-11T03:47:43;5.10;;;1.90;;
53281;SDS011;39167;52.794;6.892;2022-07-11T03:50:09;3.58;;;1.85;;
53281;SDS011;39167;52.794;6.892;2022-07-11T03:52:34;3.13;;;1.70;;
53281;SDS011;39167;52.794;6.892;2022-07-11T03:55:00;3.35;;;1.58;;
53281;SDS011;39167;52.794;6.892;2022-07-11T03:57:26;5.25;;;2.00;;
53281;SDS011;39167;52.794;6.892;2022-07-11T03:59:52;4.57;;;1.92;;
53281;SDS011;39167;52.794;6.892;2022-07-11T04:02:17;2.97;;;1.80;;
53281;SDS011;39167;52.794;6.892;2022-07-11T04:04:43;3.42;;;1.73;;
53281;SDS011;39167;52.794;6.892;2022-07-11T04:07:09;3.17;;;1.83;;
53281;SDS011;39167;52.794;6.892;2022-07-11T04:09:34;3.40;;;1.90;;
53281;SDS011;39167;52.794;6.892;2022-07-11T04:12:00;5.18;;;2.08;;
53281;SDS011;39167;52.794;6.892;2022-07-11T04:14:26;5.30;;;2.10;;
53281;SDS011;39167;52.794;6.892;2022-07-11T04:16:51;3.50;;;1.70;;
53281;SDS011;39167;52.794;6.892;2022-07-11T04:19:17;6.13;;;1.77;;
53281;SDS011;39167;52.794;6.892;2022-07-11T04:21:43;2.63;;;1.80;;
53281;SDS011;39167;52.794;6.892;2022-07-11T04:24:08;5.80;;;1.90;;
53281;SDS011;39167;52.794;6.892;2022-07-11T04:26:34;2.17;;;1.50;;
53281;SDS011;39167;52.794;6.892;2022-07-11T04:29:00;3.20;;;1.75;;
53281;SDS011;39167;52.794;6.892;2022-07-11T04:31:25;2.70;;;1.60;;
53281;SDS011;39167;52.794;6.892;2022-07-11T04:33:51;2.85;;;1.80;;
53281;SDS011;39167;52.794;6.892;2022-07-11T04:36:16;3.42;;;1.70;;
53281;SDS011;39167;52.794;6.892;2022-07-11T04:38:42;3.05;;;1.77;;
53281;SDS011;39167;52.794;6.892;2022-07-11T04:41:09;2.97;;;1.98;;
53281;SDS011;39167;52.794;6.892;2022-07-11T04:43:35;2.58;;;1.60;;
53281;SDS011;39167;52.794;6.892;2022-07-11T04:46:03;4.25;;;2.05;;
53281;SDS011;39167;52.794;6.892;2022-07-11T04:48:31;5.90;;;2.35;;
53281;SDS011;39167;52.794;6.892;2022-07-11T04:50:57;5.82;;;2.67;;
53281;SDS011;39167;52.794;6.892;2022-07-11T04:53:23;5.55;;;2.50;;
53281;SDS011;39167;52.794;6.892;2022-07-11T04:55:48;5.63;;;2.58;;
53281;SDS011;39167;52.794;6.892;2022-07-11T04:58:14;7.82;;;3.22;;
53281;SDS011;39167;52.794;6.892;2022-07-11T05:00:40;5.03;;;2.75;;
53281;SDS011;39167;52.794;6.892;2022-07-11T05:03:06;6.95;;;2.75;;
53281;SDS011;39167;52.794;6.892;2022-07-11T05:05:32;5.85;;;2.83;;
53281;SDS011;39167;52.794;6.892;2022-07-11T05:07:58;4.20;;;2.55;;
53281;SDS011;39167;52.794;6.892;2022-07-11T05:10:24;6.00;;;2.30;;
53281;SDS011;39167;52.794;6.892;2022-07-11T05:12:50;4.43;;;2.53;;
53281;SDS011;39167;52.794;6.892;2022-07-11T05:15:16;6.20;;;2.17;;
53281;SDS011;39167;52.794;6.892;2022-07-11T05:17:41;5.53;;;2.15;;
53281;SDS011;39167;52.794;6.892;2022-07-11T05:20:07;5.07;;;2.22;;
53281;SDS011;39167;52.794;6.892;2022-07-11T05:22:33;3.50;;;1.75;;
53281;SDS011;39167;52.794;6.892;2022-07-11T05:24:59;4.25;;;2.00;;
53281;SDS011;39167;52.794;6.892;2022-07-11T05:27:25;5.32;;;2.03;;
53281;SDS011;39167;52.794;6.892;2022-07-11T05:29:50;4.85;;;1.95;;
53281;SDS011;39167;52.794;6.892;2022-07-11T05:32:16;3.42;;;1.60;;
53281;SDS011;39167;52.794;6.892;2022-07-11T05:34:42;2.58;;;1.63;;
53281;SDS011;39167;52.794;6.892;2022-07-11T05:37:07;4.35;;;1.90;;
53281;SDS011;39167;52.794;6.892;2022-07-11T05:39:33;3.95;;;2.05;;
53281;SDS011;39167;52.794;6.892;2022-07-11T05:41:59;2.72;;;1.58;;
53281;SDS011;39167;52.794;6.892;2022-07-11T05:44:25;3.72;;;1.75;;
53281;SDS011;39167;52.794;6.892;2022-07-11T05:46:50;3.20;;;1.65;;
53281;SDS011;39167;52.794;6.892;2022-07-11T05:49:16;3.13;;;2.05;;
53281;SDS011;39167;52.794;6.892;2022-07-11T05:51:42;3.85;;;2.05;;
53281;SDS011;39167;52.794;6.892;2022-07-11T05:54:07;3.10;;;1.45;;
53281;SDS011;39167;52.794;6.892;2022-07-11T05:56:33;3.72;;;1.50;;
53281;SDS011;39167;52.794;6.892;2022-07-11T05:58:59;5.65;;;1.88;;
53281;SDS011;39167;52.794;6.892;2022-07-11T06:01:25;3.13;;;2.00;;
53281;SDS011;39167;52.794;6.892;2022-07-11T06:03:51;5.28;;;1.85;;
53281;SDS011;39167;52.794;6.892;2022-07-11T06:06:17;3.58;;;1.50;;
53281;SDS011;39167;52.794;6.892;2022-07-11T06:08:43;3.63;;;1.33;;
53281;SDS011;39167;52.794;6.892;2022-07-11T06:11:10;2.65;;;1.20;;
53281;SDS011;39167;52.794;6.892;2022-07-11T06:13:37;2.25;;;0.90;;
53281;SDS011;39167;52.794;6.892;2022-07-11T06:16:05;2.50;;;1.20;;
53281;SDS011;39167;52.794;6.892;2022-07-11T06:18:32;1.63;;;0.90;;
53281;SDS011;39167;52.794;6.892;2022-07-11T06:20:58;1.67;;;0.70;;
53281;SDS011;39167;52.794;6.892;2022-07-11T06:23:23;3.08;;;1.10;;
53281;SDS011;39167;52.794;6.892;2022-07-11T06:25:49;1.88;;;0.95;;
53281;SDS011;39167;52.794;6.892;2022-07-11T06:28:15;1.83;;;0.90;;
53281;SDS011;39167;52.794;6.892;2022-07-11T06:30:43;1.92;;;0.77;;
53281;SDS011;39167;52.794;6.892;2022-07-11T06:33:12;3.03;;;1.05;;
53281;SDS011;39167;52.794;6.892;2022-07-11T06:35:40;3.42;;;1.30;;
53281;SDS011;39167;52.794;6.892;2022-07-11T06:38:06;1.35;;;0.82;;
53281;SDS011;39167;52.794;6.892;2022-07-11T06:40:32;2.95;;;1.25;;
53281;SDS011;39167;52.794;6.892;2022-07-11T06:42:58;1.90;;;1.20;;
53281;SDS011;39167;52.794;6.892;2022-07-11T06:45:24;2.70;;;0.90;;
53281;SDS011;39167;52.794;6.892;2022-07-11T06:47:49;1.42;;;0.60;;
53281;SDS011;39167;52.794;6.892;2022-07-11T06:50:15;1.20;;;0.68;;
53281;SDS011;39167;52.794;6.892;2022-07-11T06:52:41;1.50;;;0.60;;
53281;SDS011;39167;52.794;6.892;2022-07-11T06:55:07;1.55;;;0.70;;
53281;SDS011;39167;52.794;6.892;2022-07-11T06:57:32;2.35;;;1.20;;
53281;SDS011;39167;52.794;6.892;2022-07-11T06:59:58;3.72;;;1.02;;
53281;SDS011;39167;52.794;6.892;2022-07-11T07:02:24;0.90;;;0.60;;
53281;SDS011;39167;52.794;6.892;2022-07-11T07:04:55;2.50;;;0.80;;
53281;SDS011;39167;52.794;6.892;2022-07-11T07:07:20;0.60;;;0.40;;
53281;SDS011;39167;52.794;6.892;2022-07-11T07:09:52;2.72;;;0.60;;
53281;SDS011;39167;52.794;6.892;2022-07-11T07:12:19;1.23;;;0.40;;
53281;SDS011;39167;52.794;6.892;2022-07-11T07:14:48;1.15;;;0.50;;
53281;SDS011;39167;52.794;6.892;2022-07-11T07:17:15;1.75;;;0.60;;
53281;SDS011;39167;52.794;6.892;2022-07-11T07:19:41;3.20;;;0.50;;
53281;SDS011;39167;52.794;6.892;2022-07-11T07:22:07;0.95;;;0.50;;
53281;SDS011;39167;52.794;6.892;2022-07-11T07:24:33;1.50;;;0.60;;
53281;SDS011;39167;52.794;6.892;2022-07-11T07:27:01;1.42;;;0.40;;
53281;SDS011;39167;52.794;6.892;2022-07-11T07:29:27;3.35;;;0.52;;
53281;SDS011;39167;52.794;6.892;2022-07-11T07:31:53;1.42;;;0.60;;
53281;SDS011;39167;52.794;6.892;2022-07-11T07:34:19;2.40;;;0.70;;
53281;SDS011;39167;52.794;6.892;2022-07-11T07:36:45;2.40;;;0.65;;
53281;SDS011;39167;52.794;6.892;2022-07-11T07:39:11;2.88;;;0.68;;
53281;SDS011;39167;52.794;6.892;2022-07-11T07:41:37;5.05;;;0.80;;
53281;SDS011;39167;52.794;6.892;2022-07-11T07:44:03;1.95;;;0.80;;
53281;SDS011;39167;52.794;6.892;2022-07-11T07:46:29;2.65;;;0.57;;
53281;SDS011;39167;52.794;6.892;2022-07-11T07:48:54;1.40;;;0.70;;
53281;SDS011;39167;52.794;6.892;2022-07-11T07:51:20;1.60;;;0.65;;
53281;SDS011;39167;52.794;6.892;2022-07-11T07:53:46;2.13;;;0.60;;
53281;SDS011;39167;52.794;6.892;2022-07-11T07:56:13;1.15;;;0.70;;
53281;SDS011;39167;52.794;6.892;2022-07-11T07:58:39;1.17;;;0.65;;
53281;SDS011;39167;52.794;6.892;2022-07-11T08:01:05;1.42;;;0.75;;
53281;SDS011;39167;52.794;6.892;2022-07-11T08:03:50;1.33;;;0.45;;
53281;SDS011;39167;52.794;6.892;2022-07-11T08:06:15;1.63;;;0.80;;
53281;SDS011;39167;52.794;6.892;2022-07-11T08:08:41;1.65;;;0.77;;
53281;SDS011;39167;52.794;6.892;2022-07-11T08:11:07;1.20;;;0.50;;
53281;SDS011;39167;52.794;6.892;2022-07-11T08:13:33;1.50;;;0.50;;
53281;SDS011;39167;52.794;6.892;2022-07-11T08:16:05;0.88;;;0.50;;
53281;SDS011;39167;52.794;6.892;2022-07-11T08:18:34;1.23;;;0.45;;
53281;SDS011;39167;52.794;6.892;2022-07-11T08:21:01;0.85;;;0.40;;
53281;SDS011;39167;52.794;6.892;2022-07-11T08:23:27;0.73;;;0.43;;
53281;SDS011;39167;52.794;6.892;2022-07-11T08:25:53;1.40;;;0.45;;
53281;SDS011;39167;52.794;6.892;2022-07-11T08:28:19;0.30;;;0.30;;
53281;SDS011;39167;52.794;6.892;2022-07-11T08:30:45;0.45;;;0.30;;
53281;SDS011;39167;52.794;6.892;2022-07-11T08:33:11;0.68;;;0.30;;
53281;SDS011;39167;52.794;6.892;2022-07-11T08:35:37;3.65;;;0.50;;
53281;SDS011;39167;52.794;6.892;2022-07-11T08:38:03;0.80;;;0.50;;
53281;SDS011;39167;52.794;6.892;2022-07-11T08:40:29;1.42;;;0.50;;
53281;SDS011;39167;52.794;6.892;2022-07-11T08:42:55;0.95;;;0.32;;
53281;SDS011;39167;52.794;6.892;2022-07-11T08:45:22;0.93;;;0.40;;
53281;SDS011;39167;52.794;6.892;2022-07-11T08:47:58;1.20;;;0.28;;
53281;SDS011;39167;52.794;6.892;2022-07-11T08:50:26;0.50;;;0.40;;
53281;SDS011;39167;52.794;6.892;2022-07-11T08:52:55;0.63;;;0.22;;
53281;SDS011;39167;52.794;6.892;2022-07-11T08:55:23;0.65;;;0.30;;
53281;SDS011;39167;52.794;6.892;2022-07-11T08:57:49;1.00;;;0.35;;
53281;SDS011;39167;52.794;6.892;2022-07-11T09:00:15;1.00;;;0.30;;
53281;SDS011;39167;52.794;6.892;2022-07-11T09:02:41;0.43;;;0.25;;
53281;SDS011;39167;52.794;6.892;2022-07-11T09:05:09;1.98;;;0.50;;
53281;SDS011;39167;52.794;6.892;2022-07-11T09:07:35;0.30;;;0.20;;
53281;SDS011;39167;52.794;6.892;2022-07-11T09:10:11;0.90;;;0.22;;
53281;SDS011;39167;52.794;6.892;2022-07-11T09:15:39;0.73;;;0.40;;
53281;SDS011;39167;52.794;6.892;2022-07-11T09:20:51;2.15;;;1.20;;
53281;SDS011;39167;52.794;6.892;2022-07-11T09:23:37;0.65;;;0.20;;
53281;SDS011;39167;52.794;6.892;2022-07-11T09:26:22;1.20;;;0.30;;
53281;SDS011;39167;52.794;6.892;2022-07-11T09:29:04;0.70;;;0.30;;
53281;SDS011;39167;52.794;6.892;2022-07-11T09:31:32;0.35;;;0.22;;
53281;SDS011;39167;52.794;6.892;2022-07-11T09:34:06;0.20;;;0.20;;
53281;SDS011;39167;52.794;6.892;2022-07-11T09:37:00;1.08;;;0.20;;
53281;SDS011;39167;52.794;6.892;2022-07-11T09:39:27;0.32;;;0.20;;
53281;SDS011;39167;52.794;6.892;2022-07-11T09:45:38;0.30;;;0.30;;
53281;SDS011;39167;52.794;6.892;2022-07-11T09:52:21;0.20;;;0.20;;
53281;SDS011;39167;52.794;6.892;2022-07-11T10:01:06;0.40;;;0.30;;
53281;SDS011;39167;52.794;6.892;2022-07-11T10:03:32;0.98;;;0.45;;
53281;SDS011;39167;52.794;6.892;2022-07-11T10:06:04;0.35;;;0.32;;
53281;SDS011;39167;52.794;6.892;2022-07-11T10:08:48;0.60;;;0.30;;
53281;SDS011;39167;52.794;6.892;2022-07-11T10:11:19;2.60;;;0.57;;
53281;SDS011;39167;52.794;6.892;2022-07-11T10:13:45;1.25;;;0.55;;
53281;SDS011;39167;52.794;6.892;2022-07-11T10:16:14;0.82;;;0.40;;
53281;SDS011;39167;52.794;6.892;2022-07-11T10:18:56;0.63;;;0.30;;
53281;SDS011;39167;52.794;6.892;2022-07-11T10:24:35;1.23;;;0.50;;
53281;SDS011;39167;52.794;6.892;2022-07-11T10:27:44;0.68;;;0.43;;
53281;SDS011;39167;52.794;6.892;2022-07-11T10:30:40;1.38;;;0.60;;
53281;SDS011;39167;52.794;6.892;2022-07-11T10:33:11;0.80;;;0.52;;
53281;SDS011;39167;52.794;6.892;2022-07-11T10:35:44;1.35;;;0.55;;
53281;SDS011;39167;52.794;6.892;2022-07-11T10:38:11;1.33;;;0.40;;
53281;SDS011;39167;52.794;6.892;2022-07-11T10:40:50;1.40;;;0.50;;
53281;SDS011;39167;52.794;6.892;2022-07-11T10:48:25;0.50;;;0.40;;
53281;SDS011;39167;52.794;6.892;2022-07-11T10:59:25;1.17;;;0.60;;
53281;SDS011;39167;52.794;6.892;2022-07-11T11:07:39;2.38;;;0.50;;
53281;SDS011;39167;52.794;6.892;2022-07-11T11:15:33;1.75;;;0.30;;
53281;SDS011;39167;52.794;6.892;2022-07-11T11:21:33;0.45;;;0.40;;
53281;SDS011;39167;52.794;6.892;2022-07-11T11:23:38;0.88;;;0.40;;
53281;SDS011;39167;52.794;6.892;2022-07-11T11:26:17;0.80;;;0.40;;
53281;SDS011;39167;52.794;6.892;2022-07-11T11:28:58;1.60;;;0.35;;
53281;SDS011;39167;52.794;6.892;2022-07-11T11:31:29;0.90;;;0.50;;
53281;SDS011;39167;52.794;6.892;2022-07-11T11:33:59;0.55;;;0.25;;
53281;SDS011;39167;52.794;6.892;2022-07-11T11:36:26;1.30;;;0.47;;
53281;SDS011;39167;52.794;6.892;2022-07-11T11:38:52;1.75;;;0.65;;
53281;SDS011;39167;52.794;6.892;2022-07-11T11:41:26;0.80;;;0.50;;
53281;SDS011;39167;52.794;6.892;2022-07-11T11:43:54;1.42;;;0.30;;
53281;SDS011;39167;52.794;6.892;2022-07-11T11:46:27;0.68;;;0.30;;
53281;SDS011;39167;52.794;6.892;2022-07-11T11:48:59;0.73;;;0.30;;
53281;SDS011;39167;52.794;6.892;2022-07-11T11:51:27;0.75;;;0.40;;
53281;SDS011;39167;52.794;6.892;2022-07-11T11:53:54;1.00;;;0.50;;
53281;SDS011;39167;52.794;6.892;2022-07-11T11:56:25;1.13;;;0.50;;
53281;SDS011;39167;52.794;6.892;2022-07-11T11:58:55;0.30;;;0.30;;
53281;SDS011;39167;52.794;6.892;2022-07-11T12:01:29;1.30;;;0.40;;
53281;SDS011;39167;52.794;6.892;2022-07-11T12:03:58;0.50;;;0.40;;
53281;SDS011;39167;52.794;6.892;2022-07-11T12:06:26;0.57;;;0.30;;
53281;SDS011;39167;52.794;6.892;2022-07-11T12:09:00;1.48;;;0.40;;
53281;SDS011;39167;52.794;6.892;2022-07-11T12:11:34;1.27;;;0.47;;
53281;SDS011;39167;52.794;6.892;2022-07-11T12:14:04;1.30;;;0.38;;
53281;SDS011;39167;52.794;6.892;2022-07-11T12:16:32;2.35;;;0.57;;
53281;SDS011;39167;52.794;6.892;2022-07-11T12:21:37;1.42;;;0.73;;
53281;SDS011;39167;52.794;6.892;2022-07-11T12:24:05;1.90;;;0.50;;
53281;SDS011;39167;52.794;6.892;2022-07-11T12:26:34;1.08;;;0.57;;
53281;SDS011;39167;52.794;6.892;2022-07-11T12:31:51;1.50;;;0.30;;
53281;SDS011;39167;52.794;6.892;2022-07-11T12:34:21;1.58;;;0.40;;
53281;SDS011;39167;52.794;6.892;2022-07-11T12:36:49;0.40;;;0.40;;
53281;SDS011;39167;52.794;6.892;2022-07-11T12:39:27;1.27;;;0.50;;
53281;SDS011;39167;52.794;6.892;2022-07-11T12:41:56;0.55;;;0.40;;
53281;SDS011;39167;52.794;6.892;2022-07-11T12:44:24;2.30;;;0.40;;
53281;SDS011;39167;52.794;6.892;2022-07-11T12:47:23;0.80;;;0.35;;
53281;SDS011;39167;52.794;6.892;2022-07-11T12:49:50;0.73;;;0.30;;
53281;SDS011;39167;52.794;6.892;2022-07-11T12:52:16;0.65;;;0.30;;
53281;SDS011;39167;52.794;6.892;2022-07-11T12:54:43;0.43;;;0.30;;
53281;SDS011;39167;52.794;6.892;2022-07-11T12:57:09;0.50;;;0.20;;
53281;SDS011;39167;52.794;6.892;2022-07-11T12:59:40;0.68;;;0.40;;
53281;SDS011;39167;52.794;6.892;2022-07-11T13:02:09;0.80;;;0.32;;
53281;SDS011;39167;52.794;6.892;2022-07-11T13:04:38;0.32;;;0.30;;
53281;SDS011;39167;52.794;6.892;2022-07-11T13:10:12;0.98;;;0.40;;
53281;SDS011;39167;52.794;6.892;2022-07-11T13:12:40;3.20;;;0.50;;
53281;SDS011;39167;52.794;6.892;2022-07-11T13:15:07;0.93;;;0.50;;
53281;SDS011;39167;52.794;6.892;2022-07-11T13:17:35;3.40;;;0.50;;
53281;SDS011;39167;52.794;6.892;2022-07-11T13:20:12;1.25;;;0.40;;
53281;SDS011;39167;52.794;6.892;2022-07-11T13:22:40;0.77;;;0.47;;
53281;SDS011;39167;52.794;6.892;2022-07-11T13:25:07;0.30;;;0.30;;
53281;SDS011;39167;52.794;6.892;2022-07-11T13:27:36;0.85;;;0.38;;
53281;SDS011;39167;52.794;6.892;2022-07-11T13:30:02;1.40;;;0.50;;
53281;SDS011;39167;52.794;6.892;2022-07-11T13:32:35;1.75;;;0.30;;
53281;SDS011;39167;52.794;6.892;2022-07-11T13:35:02;2.88;;;0.50;;
53281;SDS011;39167;52.794;6.892;2022-07-11T13:37:28;1.05;;;0.47;;
53281;SDS011;39167;52.794;6.892;2022-07-11T13:39:54;0.40;;;0.40;;
53281;SDS011;39167;52.794;6.892;2022-07-11T13:42:19;0.40;;;0.30;;
53281;SDS011;39167;52.794;6.892;2022-07-11T13:44:46;1.77;;;0.57;;
53281;SDS011;39167;52.794;6.892;2022-07-11T13:47:12;1.35;;;0.50;;
53281;SDS011;39167;52.794;6.892;2022-07-11T13:49:38;1.25;;;0.65;;
53281;SDS011;39167;52.794;6.892;2022-07-11T13:52:06;1.95;;;0.55;;
53281;SDS011;39167;52.794;6.892;2022-07-11T13:54:32;0.82;;;0.38;;
53281;SDS011;39167;52.794;6.892;2022-07-11T13:57:02;0.60;;;0.40;;
53281;SDS011;39167;52.794;6.892;2022-07-11T13:59:28;1.58;;;0.40;;
53281;SDS011;39167;52.794;6.892;2022-07-11T14:01:53;3.03;;;0.40;;
53281;SDS011;39167;52.794;6.892;2022-07-11T14:04:19;1.27;;;0.47;;
53281;SDS011;39167;52.794;6.892;2022-07-11T14:06:45;1.17;;;0.40;;
53281;SDS011;39167;52.794;6.892;2022-07-11T14:09:11;0.50;;;0.50;;
53281;SDS011;39167;52.794;6.892;2022-07-11T14:11:38;0.70;;;0.43;;
53281;SDS011;39167;52.794;6.892;2022-07-11T14:14:04;0.65;;;0.40;;
53281;SDS011;39167;52.794;6.892;2022-07-11T14:16:31;1.25;;;0.52;;
53281;SDS011;39167;52.794;6.892;2022-07-11T14:18:57;0.73;;;0.40;;
53281;SDS011;39167;52.794;6.892;2022-07-11T14:21:26;1.27;;;0.45;;
53281;SDS011;39167;52.794;6.892;2022-07-11T14:23:53;1.73;;;0.60;;
53281;SDS011;39167;52.794;6.892;2022-07-11T14:26:19;2.25;;;0.60;;
53281;SDS011;39167;52.794;6.892;2022-07-11T14:28:44;1.02;;;0.43;;
53281;SDS011;39167;52.794;6.892;2022-07-11T14:31:10;5.15;;;1.00;;
53281;SDS011;39167;52.794;6.892;2022-07-11T14:33:36;1.02;;;0.40;;
53281;SDS011;39167;52.794;6.892;2022-07-11T14:36:01;0.50;;;0.30;;
53281;SDS011;39167;52.794;6.892;2022-07-11T14:38:30;2.17;;;0.50;;
53281;SDS011;39167;52.794;6.892;2022-07-11T14:40:56;2.08;;;0.50;;
53281;SDS011;39167;52.794;6.892;2022-07-11T14:43:22;0.40;;;0.40;;
53281;SDS011;39167;52.794;6.892;2022-07-11T14:45:48;1.58;;;0.45;;
53281;SDS011;39167;52.794;6.892;2022-07-11T14:48:13;2.80;;;0.75;;
53281;SDS011;39167;52.794;6.892;2022-07-11T14:50:39;1.80;;;0.65;;
53281;SDS011;39167;52.794;6.892;2022-07-11T14:53:05;1.67;;;0.60;;
53281;SDS011;39167;52.794;6.892;2022-07-11T14:55:30;1.60;;;0.60;;
53281;SDS011;39167;52.794;6.892;2022-07-11T14:57:56;1.08;;;0.60;;
53281;SDS011;39167;52.794;6.892;2022-07-11T15:00:22;0.95;;;0.70;;
53281;SDS011;39167;52.794;6.892;2022-07-11T15:02:48;2.47;;;0.60;;
53281;SDS011;39167;52.794;6.892;2022-07-11T15:05:33;1.77;;;0.73;;
53281;SDS011;39167;52.794;6.892;2022-07-11T15:07:59;2.83;;;0.60;;
53281;SDS011;39167;52.794;6.892;2022-07-11T15:10:43;1.80;;;0.47;;
53281;SDS011;39167;52.794;6.892;2022-07-11T15:13:27;1.25;;;0.50;;
53281;SDS011;39167;52.794;6.892;2022-07-11T15:15:53;0.60;;;0.50;;
53281;SDS011;39167;52.794;6.892;2022-07-11T15:18:19;1.02;;;0.50;;
53281;SDS011;39167;52.794;6.892;2022-07-11T15:20:46;1.80;;;0.70;;
53281;SDS011;39167;52.794;6.892;2022-07-11T15:23:12;2.13;;;0.63;;
53281;SDS011;39167;52.794;6.892;2022-07-11T15:25:38;1.00;;;0.50;;
53281;SDS011;39167;52.794;6.892;2022-07-11T15:28:04;1.25;;;0.60;;
53281;SDS011;39167;52.794;6.892;2022-07-11T15:30:30;3.53;;;0.70;;
53281;SDS011;39167;52.794;6.892;2022-07-11T15:32:56;2.78;;;1.33;;
53281;SDS011;39167;52.794;6.892;2022-07-11T15:35:22;2.28;;;0.50;;
53281;SDS011;39167;52.794;6.892;2022-07-11T15:37:47;2.30;;;1.00;;
53281;SDS011;39167;52.794;6.892;2022-07-11T15:40:13;1.08;;;0.50;;
53281;SDS011;39167;52.794;6.892;2022-07-11T15:42:39;1.67;;;0.70;;
53281;SDS011;39167;52.794;6.892;2022-07-11T15:45:05;1.13;;;0.40;;
53281;SDS011;39167;52.794;6.892;2022-07-11T15:47:33;0.55;;;0.52;;
53281;SDS011;39167;52.794;6.892;2022-07-11T15:50:00;1.95;;;0.60;;